sensor_id;sensor_type;location;lat;lon;timestamp;temperature;humidity
40808;DHT22;26523;52.504;13.498;2023-06-19T00:01:58;16.90;99.90
40808;DHT22;26523;52.504;13.498;2023-06-19T00:04:23;16.90;99.90
40808;DHT22;26523;52.504;13.498;2023-06-19T00:06:49;16.80;99.90
40808;DHT22;26523;52.504;13.498;2023-06-19T00:09:15;16.80;99.90
40808;DHT22;26523;52.504;13.498;2023-06-19T00:11:41;16.80;99.90
40808;DHT22;26523;52.504;13.498;2023-06-19T00:14:06;16.80;99.90
40808;DHT22;26523;52.504;13.498;2023-06-19T00:16:32;16.80;99.90
40808;DHT22;26523;52.504;13.498;2023-06-19T00:18:58;16.80;99.90
40808;DHT22;26523;52.504;13.498;2023-06-19T00:21:24;16.80;99.90
40808;DHT22;26523;52.504;13.498;2023-06-19T00:23:51;16.80;99.90
40808;DHT22;26523;52.504;13.498;2023-06-19T00:26:17;16.80;99.90
40808;DHT22;26523;52.504;13.498;2023-06-19T00:28:43;16.90;99.90
40808;DHT22;26523;52.504;13.498;2023-06-19T00:31:11;16.90;99.90
40808;DHT22;26523;52.504;13.498;2023-06-19T00:33:39;16.80;99.90
40808;DHT22;26523;52.504;13.498;2023-06-19T00:36:12;16.80;99.90
40808;DHT22;26523;52.504;13.498;2023-06-19T00:38:38;16.70;99.90
40808;DHT22;26523;52.504;13.498;2023-06-19T00:41:04;16.70;99.90
40808;DHT22;26523;52.504;13.498;2023-06-19T00:43:31;16.70;99.90
40808;DHT22;26523;52.504;13.498;2023-06-19T00:46:00;16.80;99.90
40808;DHT22;26523;52.504;13.498;2023-06-19T00:48:27;16.80;99.90
40808;DHT22;26523;52.504;13.498;2023-06-19T00:50:54;16.80;99.90
40808;DHT22;26523;52.504;13.498;2023-06-19T00:53:20;16.90;99.90
40808;DHT22;26523;52.504;13.498;2023-06-19T00:55:48;17.00;99.90
40808;DHT22;26523;52.504;13.498;2023-06-19T00:58:14;17.00;99.90
40808;DHT22;26523;52.504;13.498;2023-06-19T01:00:40;17.10;99.90
40808;DHT22;26523;52.504;13.498;2023-06-19T01:03:06;17.10;99.90
40808;DHT22;26523;52.504;13.498;2023-06-19T01:05:32;17.20;99.90
40808;DHT22;26523;52.504;13.498;2023-06-19T01:10:46;17.20;99.90
40808;DHT22;26523;52.504;13.498;2023-06-19T01:15:44;17.30;99.90
40808;DHT22;26523;52.504;13.498;2023-06-19T01:18:12;17.30;99.90
40808;DHT22;26523;52.504;13.498;2023-06-19T01:20:38;17.30;99.90
40808;DHT22;26523;52.504;13.498;2023-06-19T01:23:11;17.20;99.90
40808;DHT22;26523;52.504;13.498;2023-06-19T01:25:37;17.20;99.90
40808;DHT22;26523;52.504;13.498;2023-06-19T01:28:04;17.20;99.90
40808;DHT22;26523;52.504;13.498;2023-06-19T01:30:31;17.20;99.90
40808;DHT22;26523;52.504;13.498;2023-06-19T01:33:12;17.10;99.90
40808;DHT22;26523;52.504;13.498;2023-06-19T01:35:43;17.10;99.90
40808;DHT22;26523;52.504;13.498;2023-06-19T01:38:10;17.00;99.90
40808;DHT22;26523;52.504;13.498;2023-06-19T01:40:37;17.00;99.90
40808;DHT22;26523;52.504;13.498;2023-06-19T01:43:05;16.90;99.90
40808;DHT22;26523;52.504;13.498;2023-06-19T01:45:32;16.90;99.90
40808;DHT22;26523;52.504;13.498;2023-06-19T01:47:57;16.90;99.90
40808;DHT22;26523;52.504;13.498;2023-06-19T01:50:24;16.90;99.90
40808;DHT22;26523;52.504;13.498;2023-06-19T01:52:51;16.80;99.90
40808;DHT22;26523;52.504;13.498;2023-06-19T01:55:17;16.90;99.90
40808;DHT22;26523;52.504;13.498;2023-06-19T01:57:42;16.80;99.90
40808;DHT22;26523;52.504;13.498;2023-06-19T02:00:08;16.90;99.90
40808;DHT22;26523;52.504;13.498;2023-06-19T02:02:36;16.90;99.90
40808;DHT22;26523;52.504;13.498;2023-06-19T02:05:01;16.90;99.90
40808;DHT22;26523;52.504;13.498;2023-06-19T02:07:27;16.90;99.90
40808;DHT22;26523;52.504;13.498;2023-06-19T02:09:53;16.90;99.90
40808;DHT22;26523;52.504;13.498;2023-06-19T02:12:18;16.90;99.90
40808;DHT22;26523;52.504;13.498;2023-06-19T02:14:44;16.90;99.90
40808;DHT22;26523;52.504;13.498;2023-06-19T02:17:10;17.00;99.90
40808;DHT22;26523;52.504;13.498;2023-06-19T02:19:35;17.00;99.90
40808;DHT22;26523;52.504;13.498;2023-06-19T02:22:01;17.00;99.90
40808;DHT22;26523;52.504;13.498;2023-06-19T02:24:27;17.00;99.90
40808;DHT22;26523;52.504;13.498;2023-06-19T02:26:52;17.00;99.90
40808;DHT22;26523;52.504;13.498;2023-06-19T02:29:18;17.10;99.90
40808;DHT22;26523;52.504;13.498;2023-06-19T02:31:44;17.10;99.90
40808;DHT22;26523;52.504;13.498;2023-06-19T02:34:10;17.10;99.90
40808;DHT22;26523;52.504;13.498;2023-06-19T02:36:36;17.10;99.90
40808;DHT22;26523;52.504;13.498;2023-06-19T02:39:04;17.10;99.90
40808;DHT22;26523;52.504;13.498;2023-06-19T02:41:29;17.10;99.90
40808;DHT22;26523;52.504;13.498;2023-06-19T02:43:55;17.00;99.90
40808;DHT22;26523;52.504;13.498;2023-06-19T02:46:20;17.00;99.90
40808;DHT22;26523;52.504;13.498;2023-06-19T02:48:46;17.00;99.90
40808;DHT22;26523;52.504;13.498;2023-06-19T02:51:12;17.00;99.90
40808;DHT22;26523;52.504;13.498;2023-06-19T02:53:37;17.00;99.90
40808;DHT22;26523;52.504;13.498;2023-06-19T02:56:03;17.00;99.90
40808;DHT22;26523;52.504;13.498;2023-06-19T02:58:30;17.10;99.90
40808;DHT22;26523;52.504;13.498;2023-06-19T03:00:56;17.10;99.90
40808;DHT22;26523;52.504;13.498;2023-06-19T03:03:21;17.00;99.90
40808;DHT22;26523;52.504;13.498;2023-06-19T03:05:48;17.10;99.90
40808;DHT22;26523;52.504;13.498;2023-06-19T03:08:14;17.00;99.90
40808;DHT22;26523;52.504;13.498;2023-06-19T03:10:39;17.10;99.90
40808;DHT22;26523;52.504;13.498;2023-06-19T03:13:05;17.10;99.90
40808;DHT22;26523;52.504;13.498;2023-06-19T03:15:30;17.00;99.90
40808;DHT22;26523;52.504;13.498;2023-06-19T03:17:56;17.00;99.90
40808;DHT22;26523;52.504;13.498;2023-06-19T03:20:22;17.00;99.90
40808;DHT22;26523;52.504;13.498;2023-06-19T03:22:47;17.00;99.90
40808;DHT22;26523;52.504;13.498;2023-06-19T03:25:13;17.00;99.90
40808;DHT22;26523;52.504;13.498;2023-06-19T03:27:38;17.10;99.90
40808;DHT22;26523;52.504;13.498;2023-06-19T03:30:05;17.20;99.90
40808;DHT22;26523;52.504;13.498;2023-06-19T03:32:34;17.20;99.90
40808;DHT22;26523;52.504;13.498;2023-06-19T03:35:01;17.30;99.90
40808;DHT22;26523;52.504;13.498;2023-06-19T03:37:26;17.50;99.90
40808;DHT22;26523;52.504;13.498;2023-06-19T03:39:52;17.60;99.90
40808;DHT22;26523;52.504;13.498;2023-06-19T03:42:18;17.70;99.90
40808;DHT22;26523;52.504;13.498;2023-06-19T03:44:43;17.80;99.90
40808;DHT22;26523;52.504;13.498;2023-06-19T03:47:09;17.90;99.90
40808;DHT22;26523;52.504;13.498;2023-06-19T03:49:34;18.00;99.90
40808;DHT22;26523;52.504;13.498;2023-06-19T03:52:00;18.10;99.90
40808;DHT22;26523;52.504;13.498;2023-06-19T03:54:26;18.20;99.90
40808;DHT22;26523;52.504;13.498;2023-06-19T03:56:52;18.20;99.90
40808;DHT22;26523;52.504;13.498;2023-06-19T03:59:18;18.30;99.90
40808;DHT22;26523;52.504;13.498;2023-06-19T04:01:43;18.50;99.90
40808;DHT22;26523;52.504;13.498;2023-06-19T04:04:09;18.50;99.90
40808;DHT22;26523;52.504;13.498;2023-06-19T04:06:35;18.50;99.90
40808;DHT22;26523;52.504;13.498;2023-06-19T04:09:00;18.50;99.90
40808;DHT22;26523;52.504;13.498;2023-06-19T04:11:26;18.50;99.90
40808;DHT22;26523;52.504;13.498;2023-06-19T04:13:52;18.50;99.90
40808;DHT22;26523;52.504;13.498;2023-06-19T04:16:17;18.50;99.90
40808;DHT22;26523;52.504;13.498;2023-06-19T04:18:43;18.50;99.90
40808;DHT22;26523;52.504;13.498;2023-06-19T04:21:09;18.50;99.90
40808;DHT22;26523;52.504;13.498;2023-06-19T04:23:34;18.50;99.90
40808;DHT22;26523;52.504;13.498;2023-06-19T04:26:00;18.40;99.90
40808;DHT22;26523;52.504;13.498;2023-06-19T04:28:26;18.40;99.90
40808;DHT22;26523;52.504;13.498;2023-06-19T04:30:52;18.40;99.90
40808;DHT22;26523;52.504;13.498;2023-06-19T04:33:28;18.30;99.90
40808;DHT22;26523;52.504;13.498;2023-06-19T04:35:55;18.30;99.90
40808;DHT22;26523;52.504;13.498;2023-06-19T04:38:21;18.20;99.90
40808;DHT22;26523;52.504;13.498;2023-06-19T04:40:50;18.10;99.90
40808;DHT22;26523;52.504;13.498;2023-06-19T04:43:16;18.10;99.90
40808;DHT22;26523;52.504;13.498;2023-06-19T04:45:42;18.10;99.90
40808;DHT22;26523;52.504;13.498;2023-06-19T04:48:08;18.10;99.90
40808;DHT22;26523;52.504;13.498;2023-06-19T04:50:34;18.20;99.90
40808;DHT22;26523;52.504;13.498;2023-06-19T04:52:59;18.20;99.90
40808;DHT22;26523;52.504;13.498;2023-06-19T04:55:25;18.10;99.90
40808;DHT22;26523;52.504;13.498;2023-06-19T04:57:51;18.20;99.90
40808;DHT22;26523;52.504;13.498;2023-06-19T05:00:17;18.20;99.90
40808;DHT22;26523;52.504;13.498;2023-06-19T05:02:45;18.20;99.90
40808;DHT22;26523;52.504;13.498;2023-06-19T05:05:18;18.20;99.90
40808;DHT22;26523;52.504;13.498;2023-06-19T05:07:44;18.20;99.90
40808;DHT22;26523;52.504;13.498;2023-06-19T05:10:13;18.30;99.90
40808;DHT22;26523;52.504;13.498;2023-06-19T05:12:39;18.30;99.90
40808;DHT22;26523;52.504;13.498;2023-06-19T05:15:05;18.30;99.90
40808;DHT22;26523;52.504;13.498;2023-06-19T05:17:31;18.40;99.90
40808;DHT22;26523;52.504;13.498;2023-06-19T05:19:57;18.30;99.90
40808;DHT22;26523;52.504;13.498;2023-06-19T05:22:22;18.40;99.90
40808;DHT22;26523;52.504;13.498;2023-06-19T05:24:49;18.30;99.90
40808;DHT22;26523;52.504;13.498;2023-06-19T05:27:15;18.40;99.90
40808;DHT22;26523;52.504;13.498;2023-06-19T05:29:40;18.40;99.90
40808;DHT22;26523;52.504;13.498;2023-06-19T05:32:06;18.40;99.90
40808;DHT22;26523;52.504;13.498;2023-06-19T05:34:32;18.40;99.90
40808;DHT22;26523;52.504;13.498;2023-06-19T05:36:58;18.50;99.90
40808;DHT22;26523;52.504;13.498;2023-06-19T05:39:26;18.40;99.90
40808;DHT22;26523;52.504;13.498;2023-06-19T05:41:51;18.50;99.90
40808;DHT22;26523;52.504;13.498;2023-06-19T05:44:17;18.60;99.90
40808;DHT22;26523;52.504;13.498;2023-06-19T05:46:44;18.60;99.90
40808;DHT22;26523;52.504;13.498;2023-06-19T05:49:10;18.70;99.90
40808;DHT22;26523;52.504;13.498;2023-06-19T05:51:35;18.70;99.90
40808;DHT22;26523;52.504;13.498;2023-06-19T05:54:01;18.80;99.90
40808;DHT22;26523;52.504;13.498;2023-06-19T05:56:32;18.70;99.90
40808;DHT22;26523;52.504;13.498;2023-06-19T05:59:02;18.70;99.90
40808;DHT22;26523;52.504;13.498;2023-06-19T06:01:28;18.80;99.90
40808;DHT22;26523;52.504;13.498;2023-06-19T06:03:55;18.90;99.90
40808;DHT22;26523;52.504;13.498;2023-06-19T06:06:22;19.00;99.90
40808;DHT22;26523;52.504;13.498;2023-06-19T06:08:47;19.00;99.90
40808;DHT22;26523;52.504;13.498;2023-06-19T06:11:13;19.00;99.90
40808;DHT22;26523;52.504;13.498;2023-06-19T06:13:39;19.00;99.90
40808;DHT22;26523;52.504;13.498;2023-06-19T06:16:04;19.10;99.90
40808;DHT22;26523;52.504;13.498;2023-06-19T06:18:30;19.10;99.90
40808;DHT22;26523;52.504;13.498;2023-06-19T06:20:56;19.20;99.90
40808;DHT22;26523;52.504;13.498;2023-06-19T06:23:21;19.10;99.90
40808;DHT22;26523;52.504;13.498;2023-06-19T06:25:47;19.10;99.90
40808;DHT22;26523;52.504;13.498;2023-06-19T06:28:13;19.20;99.90
40808;DHT22;26523;52.504;13.498;2023-06-19T06:30:40;19.10;99.90
40808;DHT22;26523;52.504;13.498;2023-06-19T06:33:05;19.10;99.90
40808;DHT22;26523;52.504;13.498;2023-06-19T06:35:31;19.30;99.90
40808;DHT22;26523;52.504;13.498;2023-06-19T06:37:57;19.40;99.90
40808;DHT22;26523;52.504;13.498;2023-06-19T06:40:22;19.50;99.90
40808;DHT22;26523;52.504;13.498;2023-06-19T06:42:48;19.60;99.90
40808;DHT22;26523;52.504;13.498;2023-06-19T06:45:14;19.60;99.90
40808;DHT22;26523;52.504;13.498;2023-06-19T06:47:40;19.60;99.90
40808;DHT22;26523;52.504;13.498;2023-06-19T06:50:07;19.60;99.90
40808;DHT22;26523;52.504;13.498;2023-06-19T06:52:33;19.80;99.90
40808;DHT22;26523;52.504;13.498;2023-06-19T06:54:58;19.90;99.90
40808;DHT22;26523;52.504;13.498;2023-06-19T06:57:24;20.00;99.90
40808;DHT22;26523;52.504;13.498;2023-06-19T06:59:50;20.10;99.90
40808;DHT22;26523;52.504;13.498;2023-06-19T07:02:16;20.20;99.90
40808;DHT22;26523;52.504;13.498;2023-06-19T07:04:41;20.30;99.90
40808;DHT22;26523;52.504;13.498;2023-06-19T07:07:07;20.40;99.90
40808;DHT22;26523;52.504;13.498;2023-06-19T07:09:34;20.50;99.90
40808;DHT22;26523;52.504;13.498;2023-06-19T07:12:00;20.60;99.90
40808;DHT22;26523;52.504;13.498;2023-06-19T07:14:29;20.70;99.90
40808;DHT22;26523;52.504;13.498;2023-06-19T07:16:55;20.90;99.90
40808;DHT22;26523;52.504;13.498;2023-06-19T07:19:20;21.10;99.90
40808;DHT22;26523;52.504;13.498;2023-06-19T07:21:46;21.20;99.90
40808;DHT22;26523;52.504;13.498;2023-06-19T07:24:12;21.30;99.90
40808;DHT22;26523;52.504;13.498;2023-06-19T07:26:38;21.50;99.90
40808;DHT22;26523;52.504;13.498;2023-06-19T07:29:03;21.60;99.90
40808;DHT22;26523;52.504;13.498;2023-06-19T07:31:29;21.70;99.90
40808;DHT22;26523;52.504;13.498;2023-06-19T07:33:54;21.70;99.90
40808;DHT22;26523;52.504;13.498;2023-06-19T07:36:20;21.70;99.90
40808;DHT22;26523;52.504;13.498;2023-06-19T07:38:46;21.70;99.90
40808;DHT22;26523;52.504;13.498;2023-06-19T07:41:11;21.80;99.90
40808;DHT22;26523;52.504;13.498;2023-06-19T07:43:37;21.90;99.90
40808;DHT22;26523;52.504;13.498;2023-06-19T07:46:04;21.80;99.90
40808;DHT22;26523;52.504;13.498;2023-06-19T07:48:29;22.00;99.90
40808;DHT22;26523;52.504;13.498;2023-06-19T07:50:55;22.00;99.90
40808;DHT22;26523;52.504;13.498;2023-06-19T07:53:21;22.10;99.90
40808;DHT22;26523;52.504;13.498;2023-06-19T07:55:46;22.30;99.90
40808;DHT22;26523;52.504;13.498;2023-06-19T07:58:12;22.40;99.90
40808;DHT22;26523;52.504;13.498;2023-06-19T08:00:38;22.50;99.90
40808;DHT22;26523;52.504;13.498;2023-06-19T08:03:04;22.60;99.90
40808;DHT22;26523;52.504;13.498;2023-06-19T08:05:30;22.60;99.90
40808;DHT22;26523;52.504;13.498;2023-06-19T08:07:56;22.40;99.90
40808;DHT22;26523;52.504;13.498;2023-06-19T08:10:22;22.40;99.90
40808;DHT22;26523;52.504;13.498;2023-06-19T08:12:48;22.50;99.90
40808;DHT22;26523;52.504;13.498;2023-06-19T08:15:13;22.50;99.90
40808;DHT22;26523;52.504;13.498;2023-06-19T08:17:39;22.70;99.90
40808;DHT22;26523;52.504;13.498;2023-06-19T08:20:06;22.80;99.90
40808;DHT22;26523;52.504;13.498;2023-06-19T08:22:32;22.90;99.90
40808;DHT22;26523;52.504;13.498;2023-06-19T08:24:58;23.00;99.90
40808;DHT22;26523;52.504;13.498;2023-06-19T08:27:24;23.00;99.90
40808;DHT22;26523;52.504;13.498;2023-06-19T08:29:49;23.10;99.90
40808;DHT22;26523;52.504;13.498;2023-06-19T08:32:16;23.10;99.90
40808;DHT22;26523;52.504;13.498;2023-06-19T08:34:42;23.10;99.90
40808;DHT22;26523;52.504;13.498;2023-06-19T08:37:08;23.30;99.90
40808;DHT22;26523;52.504;13.498;2023-06-19T08:39:34;23.50;99.90
40808;DHT22;26523;52.504;13.498;2023-06-19T08:42:01;23.50;99.90
40808;DHT22;26523;52.504;13.498;2023-06-19T08:44:28;23.40;99.90
40808;DHT22;26523;52.504;13.498;2023-06-19T08:46:54;23.50;99.90
40808;DHT22;26523;52.504;13.498;2023-06-19T08:49:19;23.50;99.90
40808;DHT22;26523;52.504;13.498;2023-06-19T08:51:45;23.50;99.90
40808;DHT22;26523;52.504;13.498;2023-06-19T08:54:11;23.60;99.90
40808;DHT22;26523;52.504;13.498;2023-06-19T08:56:36;23.50;99.90
40808;DHT22;26523;52.504;13.498;2023-06-19T09:01:36;23.60;99.90
40808;DHT22;26523;52.504;13.498;2023-06-19T09:04:11;23.60;99.90
40808;DHT22;26523;52.504;13.498;2023-06-19T09:06:51;23.50;99.90
40808;DHT22;26523;52.504;13.498;2023-06-19T09:09:18;23.40;99.90
40808;DHT22;26523;52.504;13.498;2023-06-19T09:12:03;23.40;99.90
40808;DHT22;26523;52.504;13.498;2023-06-19T09:14:45;23.50;99.90
40808;DHT22;26523;52.504;13.498;2023-06-19T09:17:19;23.60;99.90
40808;DHT22;26523;52.504;13.498;2023-06-19T09:19:50;23.70;99.90
40808;DHT22;26523;52.504;13.498;2023-06-19T09:22:17;23.80;99.90
40808;DHT22;26523;52.504;13.498;2023-06-19T09:24:46;23.90;99.90
40808;DHT22;26523;52.504;13.498;2023-06-19T09:27:14;23.80;99.90
40808;DHT22;26523;52.504;13.498;2023-06-19T09:29:44;23.90;99.90
40808;DHT22;26523;52.504;13.498;2023-06-19T09:34:45;24.20;99.90
40808;DHT22;26523;52.504;13.498;2023-06-19T09:37:10;24.40;99.90
40808;DHT22;26523;52.504;13.498;2023-06-19T09:39:40;24.60;99.90
40808;DHT22;26523;52.504;13.498;2023-06-19T09:42:08;24.70;99.90
40808;DHT22;26523;52.504;13.498;2023-06-19T09:44:40;24.70;99.90
40808;DHT22;26523;52.504;13.498;2023-06-19T09:47:22;24.90;99.90
40808;DHT22;26523;52.504;13.498;2023-06-19T09:49:53;24.90;99.90
40808;DHT22;26523;52.504;13.498;2023-06-19T09:52:20;24.80;99.90
40808;DHT22;26523;52.504;13.498;2023-06-19T09:54:50;24.70;99.90
40808;DHT22;26523;52.504;13.498;2023-06-19T09:57:16;24.60;99.90
40808;DHT22;26523;52.504;13.498;2023-06-19T09:59:42;24.60;99.90
40808;DHT22;26523;52.504;13.498;2023-06-19T10:02:09;24.70;99.90
40808;DHT22;26523;52.504;13.498;2023-06-19T10:04:46;24.90;99.90
40808;DHT22;26523;52.504;13.498;2023-06-19T10:07:19;25.10;99.90
40808;DHT22;26523;52.504;13.498;2023-06-19T10:12:42;25.30;99.90
40808;DHT22;26523;52.504;13.498;2023-06-19T10:15:20;25.40;99.90
40808;DHT22;26523;52.504;13.498;2023-06-19T10:17:49;25.40;99.90
40808;DHT22;26523;52.504;13.498;2023-06-19T10:20:29;25.20;99.90
40808;DHT22;26523;52.504;13.498;2023-06-19T10:25:27;24.90;99.90
40808;DHT22;26523;52.504;13.498;2023-06-19T10:27:53;24.90;99.90
40808;DHT22;26523;52.504;13.498;2023-06-19T10:30:20;24.90;99.90
40808;DHT22;26523;52.504;13.498;2023-06-19T10:32:47;25.00;99.90
40808;DHT22;26523;52.504;13.498;2023-06-19T10:35:14;25.20;99.90
40808;DHT22;26523;52.504;13.498;2023-06-19T10:37:40;25.20;99.90
40808;DHT22;26523;52.504;13.498;2023-06-19T10:40:07;25.40;99.90
40808;DHT22;26523;52.504;13.498;2023-06-19T10:42:38;25.30;99.90
40808;DHT22;26523;52.504;13.498;2023-06-19T10:45:09;25.30;99.90
40808;DHT22;26523;52.504;13.498;2023-06-19T10:47:40;25.50;99.90
40808;DHT22;26523;52.504;13.498;2023-06-19T10:50:13;25.60;99.90
40808;DHT22;26523;52.504;13.498;2023-06-19T10:52:40;25.60;99.90
40808;DHT22;26523;52.504;13.498;2023-06-19T10:55:07;25.20;99.90
40808;DHT22;26523;52.504;13.498;2023-06-19T10:57:33;25.00;99.90
40808;DHT22;26523;52.504;13.498;2023-06-19T10:59:59;24.90;99.90
40808;DHT22;26523;52.504;13.498;2023-06-19T11:02:25;25.00;99.90
40808;DHT22;26523;52.504;13.498;2023-06-19T11:04:54;25.00;99.90
40808;DHT22;26523;52.504;13.498;2023-06-19T11:07:22;25.20;99.90
40808;DHT22;26523;52.504;13.498;2023-06-19T11:09:52;25.40;99.90
40808;DHT22;26523;52.504;13.498;2023-06-19T11:12:21;25.60;99.90
40808;DHT22;26523;52.504;13.498;2023-06-19T11:14:48;25.90;99.90
40808;DHT22;26523;52.504;13.498;2023-06-19T11:17:14;25.90;99.90
40808;DHT22;26523;52.504;13.498;2023-06-19T11:19:40;26.10;99.90
40808;DHT22;26523;52.504;13.498;2023-06-19T11:22:08;26.40;99.90
40808;DHT22;26523;52.504;13.498;2023-06-19T11:24:33;26.70;99.90
40808;DHT22;26523;52.504;13.498;2023-06-19T11:26:59;26.60;99.90
40808;DHT22;26523;52.504;13.498;2023-06-19T11:29:26;26.90;99.90
40808;DHT22;26523;52.504;13.498;2023-06-19T11:32:03;27.00;99.80
40808;DHT22;26523;52.504;13.498;2023-06-19T11:34:34;26.90;99.40
40808;DHT22;26523;52.504;13.498;2023-06-19T11:37:10;26.70;99.60
40808;DHT22;26523;52.504;13.498;2023-06-19T11:39:37;26.70;99.80
40808;DHT22;26523;52.504;13.498;2023-06-19T11:42:03;26.90;99.80
40808;DHT22;26523;52.504;13.498;2023-06-19T11:44:28;26.80;99.20
40808;DHT22;26523;52.504;13.498;2023-06-19T11:46:57;27.10;99.60
40808;DHT22;26523;52.504;13.498;2023-06-19T11:49:24;27.20;99.30
40808;DHT22;26523;52.504;13.498;2023-06-19T11:51:50;27.30;99.00
40808;DHT22;26523;52.504;13.498;2023-06-19T11:54:16;27.30;98.80
40808;DHT22;26523;52.504;13.498;2023-06-19T11:56:43;27.20;98.60
40808;DHT22;26523;52.504;13.498;2023-06-19T11:59:09;27.20;98.80
40808;DHT22;26523;52.504;13.498;2023-06-19T12:01:35;27.40;99.00
40808;DHT22;26523;52.504;13.498;2023-06-19T12:04:02;27.40;97.60
40808;DHT22;26523;52.504;13.498;2023-06-19T12:06:29;27.50;97.80
40808;DHT22;26523;52.504;13.498;2023-06-19T12:08:55;27.40;97.90
40808;DHT22;26523;52.504;13.498;2023-06-19T12:11:21;27.60;97.70
40808;DHT22;26523;52.504;13.498;2023-06-19T12:13:47;27.50;97.30
40808;DHT22;26523;52.504;13.498;2023-06-19T12:16:13;27.50;97.70
40808;DHT22;26523;52.504;13.498;2023-06-19T12:18:39;27.40;97.20
40808;DHT22;26523;52.504;13.498;2023-06-19T12:21:05;27.50;97.00
40808;DHT22;26523;52.504;13.498;2023-06-19T12:23:31;27.40;96.90
40808;DHT22;26523;52.504;13.498;2023-06-19T12:25:56;27.60;97.10
40808;DHT22;26523;52.504;13.498;2023-06-19T12:28:22;27.60;97.00
40808;DHT22;26523;52.504;13.498;2023-06-19T12:30:48;27.40;97.10
40808;DHT22;26523;52.504;13.498;2023-06-19T12:33:17;27.60;97.10
40808;DHT22;26523;52.504;13.498;2023-06-19T12:35:43;27.80;97.00
40808;DHT22;26523;52.504;13.498;2023-06-19T12:38:09;27.90;96.20
40808;DHT22;26523;52.504;13.498;2023-06-19T12:40:36;27.80;96.10
40808;DHT22;26523;52.504;13.498;2023-06-19T12:43:02;27.90;95.50
40808;DHT22;26523;52.504;13.498;2023-06-19T12:45:28;27.90;95.50
40808;DHT22;26523;52.504;13.498;2023-06-19T12:47:53;27.80;95.40
40808;DHT22;26523;52.504;13.498;2023-06-19T12:50:19;27.80;95.00
40808;DHT22;26523;52.504;13.498;2023-06-19T12:52:45;27.60;95.00
40808;DHT22;26523;52.504;13.498;2023-06-19T12:55:11;27.60;94.70
40808;DHT22;26523;52.504;13.498;2023-06-19T12:57:36;27.50;94.90
40808;DHT22;26523;52.504;13.498;2023-06-19T13:00:03;27.40;95.50
40808;DHT22;26523;52.504;13.498;2023-06-19T13:02:31;27.40;95.60
40808;DHT22;26523;52.504;13.498;2023-06-19T13:04:57;27.40;95.20
40808;DHT22;26523;52.504;13.498;2023-06-19T13:07:23;27.50;94.60
40808;DHT22;26523;52.504;13.498;2023-06-19T13:09:49;27.40;94.40
40808;DHT22;26523;52.504;13.498;2023-06-19T13:12:15;27.30;94.20
40808;DHT22;26523;52.504;13.498;2023-06-19T13:14:40;27.30;94.70
40808;DHT22;26523;52.504;13.498;2023-06-19T13:17:07;27.30;94.60
40808;DHT22;26523;52.504;13.498;2023-06-19T13:19:33;27.30;94.80
40808;DHT22;26523;52.504;13.498;2023-06-19T13:21:58;27.30;93.70
40808;DHT22;26523;52.504;13.498;2023-06-19T13:24:24;27.30;93.50
40808;DHT22;26523;52.504;13.498;2023-06-19T13:26:53;27.30;92.40
40808;DHT22;26523;52.504;13.498;2023-06-19T13:29:18;27.30;92.70
40808;DHT22;26523;52.504;13.498;2023-06-19T13:31:44;27.50;91.70
40808;DHT22;26523;52.504;13.498;2023-06-19T13:34:10;27.50;91.40
40808;DHT22;26523;52.504;13.498;2023-06-19T13:36:35;27.70;91.50
40808;DHT22;26523;52.504;13.498;2023-06-19T13:39:01;27.90;91.50
40808;DHT22;26523;52.504;13.498;2023-06-19T13:41:28;27.70;91.70
40808;DHT22;26523;52.504;13.498;2023-06-19T13:43:56;27.70;91.60
40808;DHT22;26523;52.504;13.498;2023-06-19T13:46:21;27.60;91.80
40808;DHT22;26523;52.504;13.498;2023-06-19T13:48:47;27.50;91.80
40808;DHT22;26523;52.504;13.498;2023-06-19T13:51:22;27.50;92.30
40808;DHT22;26523;52.504;13.498;2023-06-19T13:53:48;27.60;92.10
40808;DHT22;26523;52.504;13.498;2023-06-19T13:56:14;27.70;91.60
40808;DHT22;26523;52.504;13.498;2023-06-19T13:58:41;27.50;91.40
40808;DHT22;26523;52.504;13.498;2023-06-19T14:01:06;27.60;91.80
40808;DHT22;26523;52.504;13.498;2023-06-19T14:03:32;27.70;91.90
40808;DHT22;26523;52.504;13.498;2023-06-19T14:05:58;27.60;91.90
40808;DHT22;26523;52.504;13.498;2023-06-19T14:08:23;27.70;91.30
40808;DHT22;26523;52.504;13.498;2023-06-19T14:10:50;27.60;91.70
40808;DHT22;26523;52.504;13.498;2023-06-19T14:13:16;27.50;92.10
40808;DHT22;26523;52.504;13.498;2023-06-19T14:15:42;27.50;92.10
40808;DHT22;26523;52.504;13.498;2023-06-19T14:18:07;27.50;92.40
40808;DHT22;26523;52.504;13.498;2023-06-19T14:20:33;27.60;92.20
40808;DHT22;26523;52.504;13.498;2023-06-19T14:22:59;27.70;92.50
40808;DHT22;26523;52.504;13.498;2023-06-19T14:25:25;27.70;92.10
40808;DHT22;26523;52.504;13.498;2023-06-19T14:27:50;27.70;92.50
40808;DHT22;26523;52.504;13.498;2023-06-19T14:30:16;27.80;92.80
40808;DHT22;26523;52.504;13.498;2023-06-19T14:32:42;27.80;92.20
40808;DHT22;26523;52.504;13.498;2023-06-19T14:35:07;27.80;92.00
40808;DHT22;26523;52.504;13.498;2023-06-19T14:37:33;27.80;92.30
40808;DHT22;26523;52.504;13.498;2023-06-19T14:39:59;27.80;92.50
40808;DHT22;26523;52.504;13.498;2023-06-19T14:42:24;27.90;92.40
40808;DHT22;26523;52.504;13.498;2023-06-19T14:44:50;27.80;92.40
40808;DHT22;26523;52.504;13.498;2023-06-19T14:47:16;27.80;92.50
40808;DHT22;26523;52.504;13.498;2023-06-19T14:49:42;27.90;92.70
40808;DHT22;26523;52.504;13.498;2023-06-19T14:52:07;27.80;92.50
40808;DHT22;26523;52.504;13.498;2023-06-19T14:54:33;27.80;92.90
40808;DHT22;26523;52.504;13.498;2023-06-19T14:56:59;27.70;92.70
40808;DHT22;26523;52.504;13.498;2023-06-19T14:59:25;27.90;93.00
40808;DHT22;26523;52.504;13.498;2023-06-19T15:01:51;28.10;92.80
40808;DHT22;26523;52.504;13.498;2023-06-19T15:04:16;28.10;92.70
40808;DHT22;26523;52.504;13.498;2023-06-19T15:06:42;28.30;92.50
40808;DHT22;26523;52.504;13.498;2023-06-19T15:09:07;28.30;92.20
40808;DHT22;26523;52.504;13.498;2023-06-19T15:11:33;28.10;92.20
40808;DHT22;26523;52.504;13.498;2023-06-19T15:13:59;28.10;92.40
40808;DHT22;26523;52.504;13.498;2023-06-19T15:16:25;28.00;93.00
40808;DHT22;26523;52.504;13.498;2023-06-19T15:18:51;27.80;92.80
40808;DHT22;26523;52.504;13.498;2023-06-19T15:21:17;27.80;93.20
40808;DHT22;26523;52.504;13.498;2023-06-19T15:23:43;27.50;92.80
40808;DHT22;26523;52.504;13.498;2023-06-19T15:26:09;27.60;93.20
40808;DHT22;26523;52.504;13.498;2023-06-19T15:28:35;27.60;93.30